BAW8648 LIRA-LIMJ
Flight info
| Callsign | BAW8648 |
|---|---|
| Flight time | 0h 50m |
| Altitude | 32000 |
| Route | GILIO6V GILIO DCT ELB DCT BETEN DCT SPEZI M729 IDONA IDONA1S |
| Aircraft | A320/M-SDE3FGIJ1KRWXY/SB1 |
Departure
| Time | 2026-04-29 21:44 |
|---|---|
| Airport | Ciampino–G. B. Pastine International Airport (LIRA) |
Arrival
| Time | 2026-04-29 22:34 |
|---|---|
| Airport | Genoa Cristoforo Colombo Airport (LIMJ) |
| Time | Latitude | Longitude | Altitude | Speed | Heading |
|---|---|---|---|---|---|
| 2026-04-29 21:28 | 41.79287 | 12.59633 | 406 ft | 0 kts | 52° |
| 2026-04-29 21:35 | 41.79282 | 12.59626 | 406 ft | 2 kts | 52° |
| 2026-04-29 21:36 | 41.79271 | 12.59607 | 406 ft | 3 kts | 52° |
| 2026-04-29 21:36 | 41.79259 | 12.59592 | 406 ft | 2 kts | 17° |
| 2026-04-29 21:36 | 41.79243 | 12.59590 | 404 ft | 2 kts | 318° |
| 2026-04-29 21:36 | 41.79231 | 12.59606 | 406 ft | 2 kts | 318° |
| 2026-04-29 21:37 | 41.79227 | 12.59610 | 403 ft | 0 kts | 319° |
| 2026-04-29 21:39 | 41.79232 | 12.59605 | 406 ft | 3 kts | 320° |
| 2026-04-29 21:39 | 41.79271 | 12.59564 | 403 ft | 11 kts | 321° |
| 2026-04-29 21:39 | 41.79331 | 12.59500 | 403 ft | 11 kts | 322° |
| 2026-04-29 21:39 | 41.79409 | 12.59419 | 406 ft | 14 kts | 322° |
| 2026-04-29 21:40 | 41.79467 | 12.59408 | 403 ft | 10 kts | 39° |
| 2026-04-29 21:40 | 41.79513 | 12.59483 | 402 ft | 12 kts | 52° |
| 2026-04-29 21:40 | 41.79576 | 12.59531 | 404 ft | 11 kts | 335° |
| 2026-04-29 21:40 | 41.79666 | 12.59467 | 405 ft | 18 kts | 333° |
| 2026-04-29 21:41 | 41.79802 | 12.59374 | 404 ft | 25 kts | 333° |
| 2026-04-29 21:41 | 41.79950 | 12.59272 | 404 ft | 22 kts | 333° |
| 2026-04-29 21:41 | 41.80108 | 12.59163 | 407 ft | 29 kts | 333° |
| 2026-04-29 21:41 | 41.80263 | 12.59056 | 405 ft | 24 kts | 332° |
| 2026-04-29 21:42 | 41.80429 | 12.58941 | 405 ft | 29 kts | 334° |
| 2026-04-29 21:42 | 41.80572 | 12.58843 | 406 ft | 20 kts | 333° |
| 2026-04-29 21:42 | 41.80686 | 12.58764 | 407 ft | 11 kts | 333° |
| 2026-04-29 21:42 | 41.80733 | 12.58778 | 407 ft | 8 kts | 54° |
| 2026-04-29 21:43 | 41.80759 | 12.58842 | 411 ft | 6 kts | 63° |
| 2026-04-29 21:43 | 41.80768 | 12.58867 | 415 ft | 4 kts | 65° |
| 2026-04-29 21:43 | 41.80744 | 12.58926 | 412 ft | 10 kts | 146° |
| 2026-04-29 21:43 | 41.80724 | 12.58940 | 417 ft | 4 kts | 152° |
| 2026-04-29 21:44 | 41.80476 | 12.59111 | 412 ft | 86 kts | 153° |
| 2026-04-29 21:44 | 41.79706 | 12.59644 | 413 ft | 159 kts | 152° |
| 2026-04-29 21:44 | 41.78663 | 12.60328 | 1146 ft | 165 kts | 155° |
| 2026-04-29 21:44 | 41.77598 | 12.60891 | 1888 ft | 166 kts | 167° |
| 2026-04-29 21:45 | 41.76431 | 12.60948 | 2453 ft | 172 kts | 188° |
| 2026-04-29 21:45 | 41.75274 | 12.60438 | 2914 ft | 182 kts | 208° |
| 2026-04-29 21:45 | 41.74245 | 12.59375 | 3383 ft | 193 kts | 227° |
| 2026-04-29 21:45 | 41.73498 | 12.57768 | 3681 ft | 216 kts | 251° |
| 2026-04-29 21:46 | 41.73306 | 12.55750 | 4362 ft | 223 kts | 276° |
| 2026-04-29 21:46 | 41.73685 | 12.53720 | 5159 ft | 227 kts | 286° |
| 2026-04-29 21:46 | 41.74152 | 12.51695 | 5965 ft | 229 kts | 286° |
| 2026-04-29 21:46 | 41.74629 | 12.49643 | 6765 ft | 232 kts | 286° |
| 2026-04-29 21:47 | 41.75115 | 12.47568 | 7585 ft | 235 kts | 286° |
| 2026-04-29 21:47 | 41.75616 | 12.45384 | 8048 ft | 257 kts | 285° |
| 2026-04-29 21:47 | 41.76111 | 12.42977 | 8492 ft | 278 kts | 285° |
| 2026-04-29 21:47 | 41.76678 | 12.40464 | 9234 ft | 285 kts | 286° |
| 2026-04-29 21:48 | 41.77272 | 12.37908 | 10076 ft | 289 kts | 286° |
| 2026-04-29 21:48 | 41.77871 | 12.35271 | 10592 ft | 307 kts | 285° |
| 2026-04-29 21:48 | 41.78500 | 12.32431 | 10877 ft | 329 kts | 285° |
| 2026-04-29 21:48 | 41.79153 | 12.29437 | 11499 ft | 338 kts | 285° |
| 2026-04-29 21:49 | 41.79811 | 12.26394 | 12290 ft | 342 kts | 285° |
| 2026-04-29 21:49 | 41.80466 | 12.23321 | 13114 ft | 344 kts | 284° |
| 2026-04-29 21:49 | 41.81030 | 12.20192 | 13916 ft | 347 kts | 281° |
| 2026-04-29 21:49 | 41.81518 | 12.17016 | 14721 ft | 349 kts | 280° |
| 2026-04-29 21:50 | 41.81973 | 12.13810 | 15482 ft | 352 kts | 279° |
| 2026-04-29 21:50 | 41.82424 | 12.10577 | 16221 ft | 354 kts | 279° |
| 2026-04-29 21:50 | 41.82884 | 12.07324 | 16918 ft | 357 kts | 279° |
| 2026-04-29 21:50 | 41.83359 | 12.04044 | 17611 ft | 360 kts | 279° |
| 2026-04-29 21:51 | 41.83848 | 12.00741 | 18315 ft | 362 kts | 279° |
| 2026-04-29 21:51 | 41.84345 | 11.97425 | 18997 ft | 365 kts | 279° |
| 2026-04-29 21:51 | 41.85346 | 11.90741 | 20318 ft | 371 kts | 280° |
| 2026-04-29 21:52 | 41.85856 | 11.87332 | 20968 ft | 375 kts | 280° |
| 2026-04-29 21:52 | 41.86373 | 11.83889 | 21593 ft | 378 kts | 281° |
| 2026-04-29 21:52 | 41.86890 | 11.80421 | 22183 ft | 381 kts | 281° |
| 2026-04-29 21:52 | 41.87408 | 11.76918 | 22766 ft | 384 kts | 281° |
| 2026-04-29 21:53 | 41.87929 | 11.73389 | 23346 ft | 387 kts | 281° |
| 2026-04-29 21:53 | 41.88456 | 11.69823 | 23899 ft | 391 kts | 281° |
| 2026-04-29 21:53 | 41.88986 | 11.66228 | 24459 ft | 395 kts | 281° |
| 2026-04-29 21:53 | 41.89606 | 11.62629 | 25004 ft | 398 kts | 288° |
| 2026-04-29 21:54 | 41.90692 | 11.59206 | 25557 ft | 401 kts | 298° |
| 2026-04-29 21:54 | 41.92269 | 11.56104 | 26086 ft | 405 kts | 309° |
| 2026-04-29 21:54 | 41.94198 | 11.53319 | 26616 ft | 408 kts | 311° |
| 2026-04-29 21:54 | 41.96164 | 11.50546 | 27123 ft | 411 kts | 311° |
| 2026-04-29 21:55 | 41.98142 | 11.47754 | 27606 ft | 414 kts | 311° |
| 2026-04-29 21:55 | 42.00132 | 11.44934 | 28090 ft | 416 kts | 311° |
| 2026-04-29 21:55 | 42.02127 | 11.42099 | 28572 ft | 418 kts | 311° |
| 2026-04-29 21:55 | 42.04130 | 11.39253 | 29039 ft | 420 kts | 311° |
| 2026-04-29 21:56 | 42.06144 | 11.36394 | 29462 ft | 422 kts | 311° |
| 2026-04-29 21:56 | 42.08163 | 11.33521 | 29900 ft | 423 kts | 311° |
| 2026-04-29 21:56 | 42.10178 | 11.30653 | 30471 ft | 421 kts | 311° |
| 2026-04-29 21:56 | 42.12185 | 11.27796 | 31006 ft | 419 kts | 311° |
| 2026-04-29 21:57 | 42.14182 | 11.24948 | 31529 ft | 418 kts | 311° |
| 2026-04-29 21:57 | 42.16174 | 11.22098 | 31925 ft | 417 kts | 311° |
| 2026-04-29 21:57 | 42.18157 | 11.19257 | 32050 ft | 415 kts | 311° |
| 2026-04-29 21:57 | 42.20131 | 11.16431 | 32064 ft | 413 kts | 310° |
| 2026-04-29 21:58 | 42.24062 | 11.10790 | 32067 ft | 413 kts | 310° |
| 2026-04-29 21:58 | 42.27989 | 11.05137 | 32054 ft | 412 kts | 310° |
| 2026-04-29 21:59 | 42.31909 | 10.99474 | 32054 ft | 413 kts | 310° |
| 2026-04-29 21:59 | 42.35843 | 10.93800 | 32054 ft | 414 kts | 311° |
| 2026-04-29 22:00 | 42.39781 | 10.88121 | 32056 ft | 414 kts | 310° |
| 2026-04-29 22:00 | 42.43689 | 10.82472 | 32056 ft | 414 kts | 310° |
| 2026-04-29 22:01 | 42.47620 | 10.76766 | 32051 ft | 415 kts | 310° |
| 2026-04-29 22:01 | 42.51553 | 10.71047 | 32054 ft | 415 kts | 310° |
| 2026-04-29 22:02 | 42.55489 | 10.65317 | 32058 ft | 415 kts | 310° |
| 2026-04-29 22:02 | 42.59425 | 10.59574 | 32062 ft | 415 kts | 310° |
| 2026-04-29 22:03 | 42.63357 | 10.53833 | 32062 ft | 415 kts | 310° |
| 2026-04-29 22:03 | 42.67292 | 10.48078 | 32062 ft | 415 kts | 310° |
| 2026-04-29 22:04 | 42.71214 | 10.42312 | 32062 ft | 415 kts | 311° |
| 2026-04-29 22:04 | 42.75804 | 10.37506 | 32064 ft | 421 kts | 328° |
| 2026-04-29 22:05 | 42.80943 | 10.33664 | 32060 ft | 421 kts | 328° |
| 2026-04-29 22:06 | 42.88642 | 10.27855 | 32062 ft | 422 kts | 328° |
| 2026-04-29 22:06 | 42.91207 | 10.25917 | 31915 ft | 421 kts | 328° |
| 2026-04-29 22:06 | 42.93770 | 10.23979 | 31664 ft | 421 kts | 328° |
| 2026-04-29 22:06 | 42.96334 | 10.22038 | 31416 ft | 422 kts | 328° |
| 2026-04-29 22:07 | 42.98904 | 10.20090 | 31169 ft | 422 kts | 328° |
| 2026-04-29 22:07 | 43.01469 | 10.18144 | 30917 ft | 422 kts | 328° |
| 2026-04-29 22:07 | 43.04027 | 10.16199 | 30667 ft | 420 kts | 327° |
| 2026-04-29 22:07 | 43.06578 | 10.14257 | 30416 ft | 418 kts | 328° |
| 2026-04-29 22:08 | 43.09115 | 10.12323 | 30167 ft | 417 kts | 328° |
| 2026-04-29 22:08 | 43.11643 | 10.10398 | 29898 ft | 414 kts | 328° |
| 2026-04-29 22:08 | 43.14143 | 10.08495 | 29405 ft | 409 kts | 328° |
| 2026-04-29 22:08 | 43.16622 | 10.06605 | 28867 ft | 406 kts | 327° |
| 2026-04-29 22:09 | 43.19076 | 10.04726 | 28343 ft | 402 kts | 328° |
| 2026-04-29 22:09 | 43.21479 | 10.02882 | 27828 ft | 399 kts | 328° |
| 2026-04-29 22:09 | 43.23918 | 10.01014 | 27302 ft | 395 kts | 328° |
| 2026-04-29 22:09 | 43.26279 | 9.99207 | 26799 ft | 391 kts | 328° |
| 2026-04-29 22:10 | 43.28645 | 9.97395 | 26296 ft | 388 kts | 328° |
| 2026-04-29 22:10 | 43.30991 | 9.95599 | 25807 ft | 385 kts | 328° |
| 2026-04-29 22:10 | 43.33319 | 9.93817 | 25324 ft | 382 kts | 328° |
| 2026-04-29 22:10 | 43.35626 | 9.92047 | 24848 ft | 378 kts | 328° |
| 2026-04-29 22:11 | 43.37917 | 9.90284 | 24400 ft | 375 kts | 328° |
| 2026-04-29 22:11 | 43.40186 | 9.88534 | 23942 ft | 373 kts | 328° |
| 2026-04-29 22:11 | 43.42437 | 9.86798 | 23514 ft | 369 kts | 328° |
| 2026-04-29 22:11 | 43.44663 | 9.85083 | 23103 ft | 365 kts | 328° |
| 2026-04-29 22:12 | 43.46866 | 9.83382 | 22682 ft | 361 kts | 328° |
| 2026-04-29 22:12 | 43.49046 | 9.81694 | 22258 ft | 358 kts | 328° |
| 2026-04-29 22:12 | 43.51205 | 9.80021 | 21837 ft | 354 kts | 328° |
| 2026-04-29 22:12 | 43.53344 | 9.78362 | 21376 ft | 352 kts | 328° |
| 2026-04-29 22:13 | 43.55465 | 9.76716 | 20933 ft | 349 kts | 328° |
| 2026-04-29 22:13 | 43.57573 | 9.75079 | 20459 ft | 346 kts | 328° |
| 2026-04-29 22:13 | 43.59664 | 9.73455 | 19999 ft | 344 kts | 329° |
| 2026-04-29 22:13 | 43.61744 | 9.71842 | 19537 ft | 342 kts | 329° |
| 2026-04-29 22:14 | 43.63818 | 9.70235 | 19048 ft | 341 kts | 329° |
| 2026-04-29 22:14 | 43.65882 | 9.68632 | 18578 ft | 340 kts | 329° |
| 2026-04-29 22:14 | 43.67938 | 9.67033 | 18094 ft | 339 kts | 329° |
| 2026-04-29 22:14 | 43.69988 | 9.65438 | 17610 ft | 337 kts | 329° |
| 2026-04-29 22:15 | 43.72031 | 9.63845 | 17123 ft | 336 kts | 329° |
| 2026-04-29 22:15 | 43.74064 | 9.62255 | 16641 ft | 335 kts | 329° |
| 2026-04-29 22:15 | 43.76088 | 9.60672 | 16154 ft | 334 kts | 329° |
| 2026-04-29 22:15 | 43.78105 | 9.59089 | 15686 ft | 333 kts | 329° |
| 2026-04-29 22:16 | 43.80118 | 9.57510 | 15182 ft | 332 kts | 329° |
| 2026-04-29 22:16 | 43.82126 | 9.56023 | 15050 ft | 321 kts | 332° |
| 2026-04-29 22:16 | 43.84092 | 9.54672 | 14969 ft | 312 kts | 333° |
| 2026-04-29 22:16 | 43.86070 | 9.53356 | 14901 ft | 317 kts | 333° |
| 2026-04-29 22:17 | 43.88062 | 9.52040 | 14831 ft | 317 kts | 333° |
| 2026-04-29 22:17 | 43.90051 | 9.50719 | 14757 ft | 317 kts | 333° |
| 2026-04-29 22:17 | 43.92035 | 9.49390 | 14691 ft | 317 kts | 333° |
| 2026-04-29 22:17 | 43.94017 | 9.48052 | 14621 ft | 316 kts | 333° |
| 2026-04-29 22:18 | 43.95992 | 9.46708 | 14549 ft | 316 kts | 333° |
| 2026-04-29 22:18 | 43.97960 | 9.45364 | 14480 ft | 316 kts | 333° |
| 2026-04-29 22:18 | 43.99928 | 9.44017 | 14406 ft | 315 kts | 332° |
| 2026-04-29 22:18 | 44.01897 | 9.42668 | 14335 ft | 315 kts | 333° |
| 2026-04-29 22:19 | 44.03859 | 9.41327 | 14278 ft | 314 kts | 333° |
| 2026-04-29 22:19 | 44.05819 | 9.39989 | 14202 ft | 314 kts | 333° |
| 2026-04-29 22:19 | 44.07775 | 9.38652 | 14127 ft | 313 kts | 333° |
| 2026-04-29 22:19 | 44.09727 | 9.37315 | 14059 ft | 313 kts | 333° |
| 2026-04-29 22:20 | 44.11680 | 9.35979 | 13996 ft | 312 kts | 333° |
| 2026-04-29 22:20 | 44.13629 | 9.34643 | 13924 ft | 312 kts | 333° |
| 2026-04-29 22:20 | 44.15567 | 9.33312 | 13738 ft | 308 kts | 333° |
| 2026-04-29 22:20 | 44.17474 | 9.32002 | 13485 ft | 303 kts | 333° |
| 2026-04-29 22:21 | 44.19351 | 9.30713 | 13237 ft | 298 kts | 333° |
| 2026-04-29 22:21 | 44.21195 | 9.29445 | 12984 ft | 294 kts | 333° |
| 2026-04-29 22:21 | 44.23010 | 9.28195 | 12733 ft | 289 kts | 333° |
| 2026-04-29 22:21 | 44.24803 | 9.26961 | 12484 ft | 285 kts | 333° |
| 2026-04-29 22:22 | 44.26535 | 9.25660 | 12233 ft | 280 kts | 322° |
| 2026-04-29 22:22 | 44.27791 | 9.23644 | 11980 ft | 275 kts | 296° |
| 2026-04-29 22:22 | 44.28272 | 9.21096 | 11716 ft | 272 kts | 271° |
| 2026-04-29 22:22 | 44.28222 | 9.18469 | 11485 ft | 270 kts | 268° |
| 2026-04-29 22:23 | 44.28172 | 9.16745 | 11315 ft | 268 kts | 268° |
| 2026-04-29 22:23 | 44.28072 | 9.13329 | 10982 ft | 264 kts | 268° |
| 2026-04-29 22:23 | 44.27999 | 9.10781 | 10732 ft | 262 kts | 268° |
| 2026-04-29 22:23 | 44.27951 | 9.09073 | 10557 ft | 260 kts | 268° |
| 2026-04-29 22:24 | 44.27879 | 9.06556 | 10302 ft | 258 kts | 268° |
| 2026-04-29 22:24 | 44.27810 | 9.04060 | 10066 ft | 257 kts | 268° |
| 2026-04-29 22:24 | 44.27741 | 9.01602 | 9889 ft | 250 kts | 268° |
| 2026-04-29 22:24 | 44.27671 | 8.99207 | 9769 ft | 246 kts | 268° |
| 2026-04-29 22:25 | 44.27604 | 8.96811 | 9643 ft | 247 kts | 268° |
| 2026-04-29 22:25 | 44.27538 | 8.94408 | 9512 ft | 248 kts | 268° |
| 2026-04-29 22:25 | 44.27472 | 8.92001 | 9394 ft | 249 kts | 268° |
| 2026-04-29 22:25 | 44.27403 | 8.89593 | 9268 ft | 248 kts | 267° |
| 2026-04-29 22:26 | 44.27334 | 8.87210 | 9077 ft | 249 kts | 267° |
| 2026-04-29 22:26 | 44.27262 | 8.84793 | 8764 ft | 250 kts | 267° |
| 2026-04-29 22:26 | 44.27191 | 8.82364 | 8428 ft | 251 kts | 267° |
| 2026-04-29 22:26 | 44.27119 | 8.79918 | 8080 ft | 253 kts | 267° |
| 2026-04-29 22:27 | 44.27042 | 8.77455 | 7729 ft | 255 kts | 267° |
| 2026-04-29 22:27 | 44.26965 | 8.74969 | 7373 ft | 256 kts | 267° |
| 2026-04-29 22:27 | 44.26889 | 8.72501 | 7022 ft | 253 kts | 267° |
| 2026-04-29 22:27 | 44.26888 | 8.70076 | 6672 ft | 248 kts | 278° |
| 2026-04-29 22:28 | 44.27287 | 8.67764 | 6309 ft | 244 kts | 285° |
| 2026-04-29 22:28 | 44.27728 | 8.65505 | 5944 ft | 239 kts | 285° |
| 2026-04-29 22:28 | 44.28157 | 8.63285 | 5598 ft | 234 kts | 285° |
| 2026-04-29 22:28 | 44.28757 | 8.61225 | 5242 ft | 227 kts | 310° |
| 2026-04-29 22:29 | 44.29994 | 8.59989 | 4914 ft | 216 kts | 346° |
| 2026-04-29 22:29 | 44.31435 | 8.59927 | 4603 ft | 203 kts | 15° |
| 2026-04-29 22:29 | 44.32777 | 8.60419 | 4268 ft | 197 kts | 17° |
| 2026-04-29 22:29 | 44.34077 | 8.60956 | 3953 ft | 193 kts | 25° |
| 2026-04-29 22:30 | 44.35181 | 8.61951 | 3654 ft | 187 kts | 44° |
| 2026-04-29 22:30 | 44.35962 | 8.63355 | 3387 ft | 181 kts | 61° |
| 2026-04-29 22:30 | 44.36582 | 8.64870 | 3118 ft | 177 kts | 60° |
| 2026-04-29 22:30 | 44.37195 | 8.66348 | 2851 ft | 175 kts | 60° |
| 2026-04-29 22:31 | 44.37800 | 8.67808 | 2585 ft | 172 kts | 62° |
| 2026-04-29 22:31 | 44.38383 | 8.69218 | 2351 ft | 162 kts | 62° |
| 2026-04-29 22:31 | 44.38925 | 8.70533 | 2128 ft | 150 kts | 62° |
| 2026-04-29 22:31 | 44.39438 | 8.71784 | 1886 ft | 147 kts | 62° |
| 2026-04-29 22:32 | 44.39945 | 8.73017 | 1682 ft | 146 kts | 61° |
| 2026-04-29 22:32 | 44.40454 | 8.74248 | 1478 ft | 146 kts | 60° |
| 2026-04-29 22:32 | 44.40967 | 8.75476 | 1302 ft | 146 kts | 59° |
| 2026-04-29 22:32 | 44.41459 | 8.76712 | 1087 ft | 145 kts | 65° |
| 2026-04-29 22:33 | 44.41771 | 8.78043 | 850 ft | 143 kts | 77° |
| 2026-04-29 22:33 | 44.41876 | 8.79413 | 591 ft | 141 kts | 88° |
| 2026-04-29 22:33 | 44.41809 | 8.80783 | 366 ft | 141 kts | 96° |
| 2026-04-29 22:33 | 44.41606 | 8.82122 | 137 ft | 141 kts | 108° |
| 2026-04-29 22:34 | 44.41356 | 8.83415 | 26 ft | 129 kts | 111° |
| 2026-04-29 22:34 | 44.41153 | 8.84396 | 23 ft | 80 kts | 105° |
| 2026-04-29 22:34 | 44.41050 | 8.84922 | 16 ft | 33 kts | 105° |
| 2026-04-29 22:34 | 44.41028 | 8.85145 | 14 ft | 16 kts | 57° |
| 2026-04-29 22:35 | 44.41112 | 8.85241 | 15 ft | 16 kts | 16° |
| 2026-04-29 22:35 | 44.41219 | 8.85281 | 18 ft | 13 kts | 14° |
| 2026-04-29 22:35 | 44.41296 | 8.85238 | 19 ft | 11 kts | 305° |
| 2026-04-29 22:35 | 44.41315 | 8.85158 | 19 ft | 9 kts | 284° |
| 2026-04-29 22:36 | 44.41330 | 8.85094 | 18 ft | 6 kts | 305° |
| 2026-04-29 22:36 | 44.41374 | 8.85094 | 18 ft | 8 kts | 13° |
| 2026-04-29 22:36 | 44.41404 | 8.85105 | 18 ft | 0 kts | 15° |
| 2026-04-29 22:36 | 44.41407 | 8.85106 | 18 ft | 0 kts | 15° |